sensor_id;sensor_type;location;lat;lon;timestamp;pressure;altitude;pressure_sealevel;temperature;humidity
9257;BME280;4665;51.368;6.782;2023-01-15T00:01:32;99729.72;;;5.98;100.00
9257;BME280;4665;51.368;6.782;2023-01-15T00:03:59;99731.97;;;5.93;100.00
9257;BME280;4665;51.368;6.782;2023-01-15T00:06:30;99715.72;;;5.87;100.00
9257;BME280;4665;51.368;6.782;2023-01-15T00:08:57;99722.66;;;5.88;100.00
9257;BME280;4665;51.368;6.782;2023-01-15T00:11:22;99722.53;;;5.90;100.00
9257;BME280;4665;51.368;6.782;2023-01-15T00:13:48;99724.88;;;5.93;100.00
9257;BME280;4665;51.368;6.782;2023-01-15T00:16:19;99720.41;;;5.94;100.00
9257;BME280;4665;51.368;6.782;2023-01-15T00:19:03;99736.16;;;5.95;100.00
9257;BME280;4665;51.368;6.782;2023-01-15T00:21:32;99737.56;;;5.89;100.00
9257;BME280;4665;51.368;6.782;2023-01-15T00:23:57;99735.31;;;5.95;100.00
9257;BME280;4665;51.368;6.782;2023-01-15T00:26:41;99739.53;;;5.87;100.00
9257;BME280;4665;51.368;6.782;2023-01-15T00:29:27;99737.03;;;5.86;100.00
9257;BME280;4665;51.368;6.782;2023-01-15T00:31:59;99724.19;;;5.91;100.00
9257;BME280;4665;51.368;6.782;2023-01-15T00:34:26;99714.88;;;5.97;100.00
9257;BME280;4665;51.368;6.782;2023-01-15T00:36:52;99689.41;;;5.96;100.00
9257;BME280;4665;51.368;6.782;2023-01-15T00:39:18;99672.25;;;6.00;100.00
9257;BME280;4665;51.368;6.782;2023-01-15T00:41:43;99674.91;;;6.00;100.00
9257;BME280;4665;51.368;6.782;2023-01-15T00:44:09;99669.06;;;5.96;100.00
9257;BME280;4665;51.368;6.782;2023-01-15T00:46:34;99674.22;;;5.98;100.00
9257;BME280;4665;51.368;6.782;2023-01-15T00:49:01;99690.13;;;5.88;100.00
9257;BME280;4665;51.368;6.782;2023-01-15T00:51:27;99692.31;;;5.93;100.00
9257;BME280;4665;51.368;6.782;2023-01-15T00:53:52;99690.06;;;5.98;100.00
9257;BME280;4665;51.368;6.782;2023-01-15T00:56:17;99691.75;;;5.99;100.00
9257;BME280;4665;51.368;6.782;2023-01-15T00:58:43;99684.66;;;5.99;100.00
9257;BME280;4665;51.368;6.782;2023-01-15T01:01:10;99674.31;;;6.06;100.00
9257;BME280;4665;51.368;6.782;2023-01-15T01:03:35;99666.16;;;5.99;100.00
9257;BME280;4665;51.368;6.782;2023-01-15T01:06:02;99664.84;;;6.03;100.00
9257;BME280;4665;51.368;6.782;2023-01-15T01:08:28;99671.13;;;6.02;100.00
9257;BME280;4665;51.368;6.782;2023-01-15T01:11:08;99682.84;;;6.00;100.00
9257;BME280;4665;51.368;6.782;2023-01-15T01:13:34;99677.69;;;5.98;100.00
9257;BME280;4665;51.368;6.782;2023-01-15T01:15:59;99683.81;;;5.99;100.00
9257;BME280;4665;51.368;6.782;2023-01-15T01:18:25;99695.38;;;5.98;100.00
9257;BME280;4665;51.368;6.782;2023-01-15T01:20:50;99706.09;;;5.96;100.00
9257;BME280;4665;51.368;6.782;2023-01-15T01:23:16;99706.81;;;5.88;100.00
9257;BME280;4665;51.368;6.782;2023-01-15T01:25:41;99708.31;;;5.91;100.00
9257;BME280;4665;51.368;6.782;2023-01-15T01:28:07;99711.22;;;5.98;100.00
9257;BME280;4665;51.368;6.782;2023-01-15T01:30:32;99720.41;;;5.94;100.00
9257;BME280;4665;51.368;6.782;2023-01-15T01:32:58;99715.44;;;5.90;100.00
9257;BME280;4665;51.368;6.782;2023-01-15T01:35:23;99713.78;;;5.89;100.00
9257;BME280;4665;51.368;6.782;2023-01-15T01:37:51;99711.13;;;5.89;100.00
9257;BME280;4665;51.368;6.782;2023-01-15T01:40:18;99718.88;;;5.91;100.00
9257;BME280;4665;51.368;6.782;2023-01-15T01:42:44;99722.97;;;5.85;100.00
9257;BME280;4665;51.368;6.782;2023-01-15T01:47:36;99720.16;;;5.87;100.00
9257;BME280;4665;51.368;6.782;2023-01-15T01:50:08;99716.41;;;5.89;100.00
9257;BME280;4665;51.368;6.782;2023-01-15T01:52:40;99728.25;;;5.85;100.00
9257;BME280;4665;51.368;6.782;2023-01-15T01:55:08;99719.50;;;5.85;100.00
9257;BME280;4665;51.368;6.782;2023-01-15T01:57:33;99732.50;;;5.78;100.00
9257;BME280;4665;51.368;6.782;2023-01-15T02:00:00;99724.69;;;5.77;100.00
9257;BME280;4665;51.368;6.782;2023-01-15T02:02:25;99720.94;;;5.79;100.00
9257;BME280;4665;51.368;6.782;2023-01-15T02:04:51;99722.38;;;5.74;100.00
9257;BME280;4665;51.368;6.782;2023-01-15T02:07:17;99711.34;;;5.78;100.00
9257;BME280;4665;51.368;6.782;2023-01-15T02:09:43;99713.31;;;5.76;100.00
9257;BME280;4665;51.368;6.782;2023-01-15T02:12:36;99715.50;;;5.81;100.00
9257;BME280;4665;51.368;6.782;2023-01-15T02:15:13;99697.97;;;5.80;100.00
9257;BME280;4665;51.368;6.782;2023-01-15T02:17:48;99695.28;;;5.89;100.00
9257;BME280;4665;51.368;6.782;2023-01-15T02:20:29;99696.81;;;5.82;100.00
9257;BME280;4665;51.368;6.782;2023-01-15T02:23:27;99705.44;;;5.84;100.00
9257;BME280;4665;51.368;6.782;2023-01-15T02:28:28;99706.19;;;5.77;100.00
9257;BME280;4665;51.368;6.782;2023-01-15T02:31:07;99695.50;;;5.78;100.00
9257;BME280;4665;51.368;6.782;2023-01-15T02:37:07;99670.84;;;5.78;100.00
9257;BME280;4665;51.368;6.782;2023-01-15T02:39:36;99670.03;;;5.77;100.00
9257;BME280;4665;51.368;6.782;2023-01-15T02:42:05;99663.78;;;5.78;100.00
9257;BME280;4665;51.368;6.782;2023-01-15T02:44:36;99667.94;;;5.81;100.00
9257;BME280;4665;51.368;6.782;2023-01-15T02:47:03;99672.06;;;5.83;100.00
9257;BME280;4665;51.368;6.782;2023-01-15T02:49:30;99672.97;;;5.74;100.00
9257;BME280;4665;51.368;6.782;2023-01-15T02:52:04;99679.78;;;5.77;100.00
9257;BME280;4665;51.368;6.782;2023-01-15T02:54:38;99675.63;;;5.74;100.00
9257;BME280;4665;51.368;6.782;2023-01-15T02:57:05;99662.41;;;5.74;100.00
9257;BME280;4665;51.368;6.782;2023-01-15T02:59:37;99672.38;;;5.80;100.00
9257;BME280;4665;51.368;6.782;2023-01-15T03:02:09;99665.13;;;5.82;100.00
9257;BME280;4665;51.368;6.782;2023-01-15T03:04:43;99678.78;;;5.78;100.00
9257;BME280;4665;51.368;6.782;2023-01-15T03:07:22;99686.88;;;5.76;100.00
9257;BME280;4665;51.368;6.782;2023-01-15T03:09:50;99679.91;;;5.75;100.00
9257;BME280;4665;51.368;6.782;2023-01-15T03:14:55;99676.31;;;5.76;100.00
9257;BME280;4665;51.368;6.782;2023-01-15T03:17:53;99677.25;;;5.75;100.00
9257;BME280;4665;51.368;6.782;2023-01-15T03:20:22;99662.72;;;5.71;100.00
9257;BME280;4665;51.368;6.782;2023-01-15T03:22:53;99664.38;;;5.72;100.00
9257;BME280;4665;51.368;6.782;2023-01-15T03:25:26;99658.41;;;5.70;100.00
9257;BME280;4665;51.368;6.782;2023-01-15T03:27:57;99655.16;;;5.76;100.00
9257;BME280;4665;51.368;6.782;2023-01-15T03:30:23;99655.31;;;5.75;100.00
9257;BME280;4665;51.368;6.782;2023-01-15T03:32:49;99642.91;;;5.75;100.00
9257;BME280;4665;51.368;6.782;2023-01-15T03:35:39;99635.91;;;5.84;100.00
9257;BME280;4665;51.368;6.782;2023-01-15T03:38:06;99632.19;;;5.77;100.00
9257;BME280;4665;51.368;6.782;2023-01-15T03:40:33;99626.22;;;5.75;100.00
9257;BME280;4665;51.368;6.782;2023-01-15T03:43:05;99629.69;;;5.75;100.00
9257;BME280;4665;51.368;6.782;2023-01-15T03:45:54;99644.66;;;5.84;100.00
9257;BME280;4665;51.368;6.782;2023-01-15T03:53:48;99632.06;;;5.78;100.00
9257;BME280;4665;51.368;6.782;2023-01-15T03:56:27;99634.31;;;5.73;100.00
9257;BME280;4665;51.368;6.782;2023-01-15T03:59:02;99627.28;;;5.82;100.00
9257;BME280;4665;51.368;6.782;2023-01-15T04:01:33;99633.41;;;5.82;100.00
9257;BME280;4665;51.368;6.782;2023-01-15T04:04:01;99633.72;;;5.79;100.00
9257;BME280;4665;51.368;6.782;2023-01-15T04:06:29;99642.00;;;5.84;100.00
9257;BME280;4665;51.368;6.782;2023-01-15T04:08:56;99639.69;;;5.81;100.00
9257;BME280;4665;51.368;6.782;2023-01-15T04:11:24;99644.28;;;5.79;100.00
9257;BME280;4665;51.368;6.782;2023-01-15T04:13:50;99648.88;;;5.77;100.00
9257;BME280;4665;51.368;6.782;2023-01-15T04:16:29;99648.88;;;5.77;100.00
9257;BME280;4665;51.368;6.782;2023-01-15T04:18:55;99636.94;;;5.73;100.00
9257;BME280;4665;51.368;6.782;2023-01-15T04:21:21;99648.50;;;5.72;100.00
9257;BME280;4665;51.368;6.782;2023-01-15T04:23:47;99646.69;;;5.73;100.00
9257;BME280;4665;51.368;6.782;2023-01-15T04:26:13;99642.91;;;5.75;100.00
9257;BME280;4665;51.368;6.782;2023-01-15T04:28:39;99657.50;;;5.79;100.00
9257;BME280;4665;51.368;6.782;2023-01-15T04:31:04;99650.94;;;5.83;100.00
9257;BME280;4665;51.368;6.782;2023-01-15T04:33:29;99653.63;;;5.91;100.00
9257;BME280;4665;51.368;6.782;2023-01-15T04:36:01;99645.34;;;5.86;100.00
9257;BME280;4665;51.368;6.782;2023-01-15T04:38:26;99661.88;;;5.88;100.00
9257;BME280;4665;51.368;6.782;2023-01-15T04:40:52;99655.91;;;5.86;100.00
9257;BME280;4665;51.368;6.782;2023-01-15T04:43:36;99641.72;;;5.87;100.00
9257;BME280;4665;51.368;6.782;2023-01-15T04:46:23;99654.53;;;5.82;100.00
9257;BME280;4665;51.368;6.782;2023-01-15T04:48:50;99647.75;;;5.80;100.00
9257;BME280;4665;51.368;6.782;2023-01-15T04:51:15;99652.34;;;5.78;100.00
9257;BME280;4665;51.368;6.782;2023-01-15T04:53:41;99642.78;;;5.77;100.00
9257;BME280;4665;51.368;6.782;2023-01-15T04:56:06;99648.81;;;5.69;100.00
9257;BME280;4665;51.368;6.782;2023-01-15T04:58:32;99655.75;;;5.70;100.00
9257;BME280;4665;51.368;6.782;2023-01-15T05:00:58;99654.34;;;5.76;100.00
9257;BME280;4665;51.368;6.782;2023-01-15T05:03:28;99656.13;;;5.75;100.00
9257;BME280;4665;51.368;6.782;2023-01-15T05:05:53;99654.34;;;5.76;100.00
9257;BME280;4665;51.368;6.782;2023-01-15T05:08:19;99657.94;;;5.75;100.00
9257;BME280;4665;51.368;6.782;2023-01-15T05:10:44;99647.91;;;5.78;100.00
9257;BME280;4665;51.368;6.782;2023-01-15T05:13:10;99651.84;;;5.74;100.00
9257;BME280;4665;51.368;6.782;2023-01-15T05:15:36;99648.50;;;5.72;100.00
9257;BME280;4665;51.368;6.782;2023-01-15T05:18:03;99648.66;;;5.70;100.00
9257;BME280;4665;51.368;6.782;2023-01-15T05:20:29;99660.00;;;5.81;100.00
9257;BME280;4665;51.368;6.782;2023-01-15T05:22:54;99661.13;;;5.78;100.00
9257;BME280;4665;51.368;6.782;2023-01-15T05:25:20;99657.13;;;5.74;100.00
9257;BME280;4665;51.368;6.782;2023-01-15T05:27:45;99660.13;;;5.79;100.00
9257;BME280;4665;51.368;6.782;2023-01-15T05:30:11;99663.22;;;5.75;100.00
9257;BME280;4665;51.368;6.782;2023-01-15T05:32:36;99669.06;;;5.78;100.00
9257;BME280;4665;51.368;6.782;2023-01-15T05:35:02;99649.19;;;5.74;100.00
9257;BME280;4665;51.368;6.782;2023-01-15T05:37:29;99648.66;;;5.70;100.00
9257;BME280;4665;51.368;6.782;2023-01-15T05:39:54;99659.31;;;5.79;100.00
9257;BME280;4665;51.368;6.782;2023-01-15T05:42:20;99654.41;;;5.84;100.00
9257;BME280;4665;51.368;6.782;2023-01-15T05:44:45;99640.50;;;5.82;100.00
9257;BME280;4665;51.368;6.782;2023-01-15T05:47:11;99632.06;;;5.78;100.00
9257;BME280;4665;51.368;6.782;2023-01-15T05:49:36;99639.69;;;5.81;100.00
9257;BME280;4665;51.368;6.782;2023-01-15T05:52:02;99652.28;;;5.87;100.00
9257;BME280;4665;51.368;6.782;2023-01-15T05:54:32;99653.94;;;5.88;100.00
9257;BME280;4665;51.368;6.782;2023-01-15T05:56:58;99647.59;;;5.81;100.00
9257;BME280;4665;51.368;6.782;2023-01-15T05:59:25;99636.50;;;5.78;100.00
9257;BME280;4665;51.368;6.782;2023-01-15T06:01:52;99659.22;;;5.88;100.00
9257;BME280;4665;51.368;6.782;2023-01-15T06:04:18;99647.47;;;5.83;100.00
9257;BME280;4665;51.368;6.782;2023-01-15T06:06:46;99661.19;;;5.86;100.00
9257;BME280;4665;51.368;6.782;2023-01-15T06:09:12;99670.63;;;5.89;100.00
9257;BME280;4665;51.368;6.782;2023-01-15T06:11:38;99668.44;;;5.84;100.00
9257;BME280;4665;51.368;6.782;2023-01-15T06:14:05;99667.47;;;5.85;100.00
9257;BME280;4665;51.368;6.782;2023-01-15T06:16:31;99669.81;;;5.88;100.00
9257;BME280;4665;51.368;6.782;2023-01-15T06:19:04;99680.97;;;5.82;100.00
9257;BME280;4665;51.368;6.782;2023-01-15T06:21:31;99688.69;;;5.94;100.00
9257;BME280;4665;51.368;6.782;2023-01-15T06:23:56;99687.34;;;5.89;100.00
9257;BME280;4665;51.368;6.782;2023-01-15T06:26:22;99672.81;;;5.94;100.00
9257;BME280;4665;51.368;6.782;2023-01-15T06:28:48;99667.66;;;6.02;100.00
9257;BME280;4665;51.368;6.782;2023-01-15T06:31:16;99675.78;;;5.90;100.00
9257;BME280;4665;51.368;6.782;2023-01-15T06:33:43;99672.59;;;5.87;100.00
9257;BME280;4665;51.368;6.782;2023-01-15T06:36:14;99670.63;;;5.89;100.00
9257;BME280;4665;51.368;6.782;2023-01-15T06:38:40;99671.31;;;5.91;100.00
9257;BME280;4665;51.368;6.782;2023-01-15T06:41:09;99678.56;;;5.89;100.00
9257;BME280;4665;51.368;6.782;2023-01-15T06:43:55;99674.41;;;5.86;100.00
9257;BME280;4665;51.368;6.782;2023-01-15T06:46:45;99673.44;;;5.87;100.00
9257;BME280;4665;51.368;6.782;2023-01-15T06:49:30;99680.31;;;5.98;100.00
9257;BME280;4665;51.368;6.782;2023-01-15T06:51:56;99680.25;;;5.90;100.00
9257;BME280;4665;51.368;6.782;2023-01-15T06:54:22;99679.41;;;5.89;100.00
9257;BME280;4665;51.368;6.782;2023-01-15T06:56:47;99684.16;;;5.86;100.00
9257;BME280;4665;51.368;6.782;2023-01-15T06:59:13;99674.41;;;5.86;100.00
9257;BME280;4665;51.368;6.782;2023-01-15T07:01:38;99667.16;;;5.88;100.00
9257;BME280;4665;51.368;6.782;2023-01-15T07:04:04;99673.94;;;5.91;100.00
9257;BME280;4665;51.368;6.782;2023-01-15T07:06:30;99666.47;;;5.86;100.00
9257;BME280;4665;51.368;6.782;2023-01-15T07:08:56;99667.94;;;5.81;100.00
9257;BME280;4665;51.368;6.782;2023-01-15T07:11:21;99676.13;;;5.78;100.00
9257;BME280;4665;51.368;6.782;2023-01-15T07:13:47;99677.94;;;5.77;100.00
9257;BME280;4665;51.368;6.782;2023-01-15T07:16:13;99681.59;;;5.76;100.00
9257;BME280;4665;51.368;6.782;2023-01-15T07:18:54;99689.91;;;5.81;100.00
9257;BME280;4665;51.368;6.782;2023-01-15T07:21:21;99687.38;;;5.80;100.00
9257;BME280;4665;51.368;6.782;2023-01-15T07:23:46;99679.88;;;5.85;100.00
9257;BME280;4665;51.368;6.782;2023-01-15T07:26:12;99700.16;;;5.84;100.00
9257;BME280;4665;51.368;6.782;2023-01-15T07:28:37;99708.41;;;5.81;100.00
9257;BME280;4665;51.368;6.782;2023-01-15T07:31:03;99704.38;;;5.77;100.00
9257;BME280;4665;51.368;6.782;2023-01-15T07:33:28;99705.75;;;5.81;100.00
9257;BME280;4665;51.368;6.782;2023-01-15T07:35:54;99697.72;;;5.73;100.00
9257;BME280;4665;51.368;6.782;2023-01-15T07:38:21;99708.97;;;5.75;100.00
9257;BME280;4665;51.368;6.782;2023-01-15T07:40:46;99708.16;;;5.75;100.00
9257;BME280;4665;51.368;6.782;2023-01-15T07:43:33;99705.28;;;5.68;100.00
9257;BME280;4665;51.368;6.782;2023-01-15T07:46:16;99711.56;;;5.67;100.00
9257;BME280;4665;51.368;6.782;2023-01-15T07:49:00;99713.19;;;5.68;100.00
9257;BME280;4665;51.368;6.782;2023-01-15T07:51:44;99719.47;;;5.67;100.00
9257;BME280;4665;51.368;6.782;2023-01-15T07:54:09;99720.63;;;5.64;100.00
9257;BME280;4665;51.368;6.782;2023-01-15T07:56:36;99723.09;;;5.66;100.00
9257;BME280;4665;51.368;6.782;2023-01-15T07:59:01;99727.53;;;5.65;100.00
9257;BME280;4665;51.368;6.782;2023-01-15T08:01:27;99733.66;;;5.66;100.00
9257;BME280;4665;51.368;6.782;2023-01-15T08:03:52;99723.69;;;5.60;100.00
9257;BME280;4665;51.368;6.782;2023-01-15T08:06:18;99748.38;;;5.68;100.00
9257;BME280;4665;51.368;6.782;2023-01-15T08:08:43;99748.81;;;5.64;100.00
9257;BME280;4665;51.368;6.782;2023-01-15T08:11:09;99745.59;;;5.70;100.00
9257;BME280;4665;51.368;6.782;2023-01-15T08:13:52;99738.25;;;5.64;100.00
9257;BME280;4665;51.368;6.782;2023-01-15T08:16:37;99754.22;;;5.72;100.00
9257;BME280;4665;51.368;6.782;2023-01-15T08:19:02;99765.38;;;5.66;100.00
9257;BME280;4665;51.368;6.782;2023-01-15T08:21:28;99768.31;;;5.63;100.00
9257;BME280;4665;51.368;6.782;2023-01-15T08:23:53;99764.28;;;5.59;100.00
9257;BME280;4665;51.368;6.782;2023-01-15T08:26:18;99765.16;;;5.59;100.00
9257;BME280;4665;51.368;6.782;2023-01-15T08:28:44;99773.22;;;5.58;100.00
9257;BME280;4665;51.368;6.782;2023-01-15T08:31:10;99785.53;;;5.67;100.00
9257;BME280;4665;51.368;6.782;2023-01-15T08:33:35;99782.78;;;5.59;100.00
9257;BME280;4665;51.368;6.782;2023-01-15T08:36:01;99775.47;;;5.53;100.00
9257;BME280;4665;51.368;6.782;2023-01-15T08:38:26;99768.38;;;5.53;100.00
9257;BME280;4665;51.368;6.782;2023-01-15T08:40:53;99773.09;;;5.49;100.00
9257;BME280;4665;51.368;6.782;2023-01-15T08:43:26;99779.38;;;5.48;100.00
9257;BME280;4665;51.368;6.782;2023-01-15T08:45:52;99780.59;;;5.54;100.00
9257;BME280;4665;51.368;6.782;2023-01-15T08:48:17;99770.31;;;5.51;100.00
9257;BME280;4665;51.368;6.782;2023-01-15T08:50:43;99768.06;;;5.56;100.00
9257;BME280;4665;51.368;6.782;2023-01-15T08:53:09;99774.38;;;5.45;100.00
9257;BME280;4665;51.368;6.782;2023-01-15T08:55:36;99784.41;;;5.42;100.00
9257;BME280;4665;51.368;6.782;2023-01-15T08:58:01;99785.66;;;5.38;100.00
9257;BME280;4665;51.368;6.782;2023-01-15T09:00:28;99791.09;;;5.36;100.00
9257;BME280;4665;51.368;6.782;2023-01-15T09:02:53;99774.72;;;5.33;100.00
9257;BME280;4665;51.368;6.782;2023-01-15T09:05:18;99789.88;;;5.31;100.00
9257;BME280;4665;51.368;6.782;2023-01-15T09:07:44;99796.69;;;5.23;100.00
9257;BME280;4665;51.368;6.782;2023-01-15T09:10:10;99780.28;;;5.30;100.00
9257;BME280;4665;51.368;6.782;2023-01-15T09:12:35;99784.06;;;5.17;100.00
9257;BME280;4665;51.368;6.782;2023-01-15T09:15:00;99789.22;;;5.19;100.00
9257;BME280;4665;51.368;6.782;2023-01-15T09:17:27;99797.81;;;5.21;100.00
9257;BME280;4665;51.368;6.782;2023-01-15T09:19:52;99795.91;;;5.13;100.00
9257;BME280;4665;51.368;6.782;2023-01-15T09:22:18;99785.19;;;5.15;100.00
9257;BME280;4665;51.368;6.782;2023-01-15T09:24:43;99786.03;;;5.15;100.00
9257;BME280;4665;51.368;6.782;2023-01-15T09:27:12;99775.44;;;5.25;100.00
9257;BME280;4665;51.368;6.782;2023-01-15T09:29:38;99774.06;;;5.21;100.00
9257;BME280;4665;51.368;6.782;2023-01-15T09:32:03;99787.34;;;5.29;100.00
9257;BME280;4665;51.368;6.782;2023-01-15T09:34:29;99781.13;;;5.30;100.00
9257;BME280;4665;51.368;6.782;2023-01-15T09:36:54;99775.53;;;5.33;100.00
9257;BME280;4665;51.368;6.782;2023-01-15T09:39:19;99772.75;;;5.35;100.00
9257;BME280;4665;51.368;6.782;2023-01-15T09:47:22;99770.44;;;5.49;100.00
9257;BME280;4665;51.368;6.782;2023-01-15T09:50:14;99773.50;;;5.55;100.00
9257;BME280;4665;51.368;6.782;2023-01-15T09:55:21;99782.66;;;5.60;100.00
9257;BME280;4665;51.368;6.782;2023-01-15T09:57:52;99784.84;;;5.65;100.00
9257;BME280;4665;51.368;6.782;2023-01-15T10:00:23;99775.06;;;5.75;100.00
9257;BME280;4665;51.368;6.782;2023-01-15T10:05:50;99785.19;;;5.80;100.00
9257;BME280;4665;51.368;6.782;2023-01-15T10:08:44;99770.56;;;5.85;100.00
9257;BME280;4665;51.368;6.782;2023-01-15T10:13:44;99805.88;;;5.94;100.00
9257;BME280;4665;51.368;6.782;2023-01-15T10:16:15;99796.13;;;5.95;100.00
9257;BME280;4665;51.368;6.782;2023-01-15T10:18:44;99787.75;;;5.99;100.00
9257;BME280;4665;51.368;6.782;2023-01-15T10:21:58;99804.13;;;6.03;100.00
9257;BME280;4665;51.368;6.782;2023-01-15T10:24:13;99799.47;;;5.97;100.00
9257;BME280;4665;51.368;6.782;2023-01-15T10:26:52;99805.44;;;5.99;100.00
9257;BME280;4665;51.368;6.782;2023-01-15T10:31:53;99796.31;;;6.11;100.00
9257;BME280;4665;51.368;6.782;2023-01-15T10:37:12;99811.66;;;6.25;100.00
9257;BME280;4665;51.368;6.782;2023-01-15T10:45:40;99810.97;;;6.23;100.00
9257;BME280;4665;51.368;6.782;2023-01-15T10:48:19;99798.44;;;6.25;100.00
9257;BME280;4665;51.368;6.782;2023-01-15T10:50:46;99793.81;;;6.27;100.00
9257;BME280;4665;51.368;6.782;2023-01-15T10:53:53;99811.44;;;6.37;100.00
9257;BME280;4665;51.368;6.782;2023-01-15T10:56:58;99836.75;;;6.39;100.00
9257;BME280;4665;51.368;6.782;2023-01-15T10:59:43;99829.31;;;6.43;100.00
9257;BME280;4665;51.368;6.782;2023-01-15T11:02:29;99820.19;;;6.37;100.00
9257;BME280;4665;51.368;6.782;2023-01-15T11:04:56;99822.69;;;6.39;100.00
9257;BME280;4665;51.368;6.782;2023-01-15T11:07:29;99812.41;;;6.36;100.00
9257;BME280;4665;51.368;6.782;2023-01-15T11:10:01;99825.25;;;6.48;100.00
9257;BME280;4665;51.368;6.782;2023-01-15T11:12:28;99827.00;;;6.40;100.00
9257;BME280;4665;51.368;6.782;2023-01-15T11:15:22;99817.09;;;6.42;100.00
9257;BME280;4665;51.368;6.782;2023-01-15T11:18:16;99822.69;;;6.39;100.00
9257;BME280;4665;51.368;6.782;2023-01-15T11:21:10;99818.13;;;6.31;100.00
9257;BME280;4665;51.368;6.782;2023-01-15T11:23:35;99826.63;;;6.35;100.00
9257;BME280;4665;51.368;6.782;2023-01-15T11:26:02;99828.13;;;6.37;100.00
9257;BME280;4665;51.368;6.782;2023-01-15T11:30:57;99806.97;;;6.37;100.00
9257;BME280;4665;51.368;6.782;2023-01-15T11:33:28;99812.25;;;6.37;100.00
9257;BME280;4665;51.368;6.782;2023-01-15T11:35:58;99811.13;;;6.40;100.00
9257;BME280;4665;51.368;6.782;2023-01-15T11:38:41;99825.78;;;6.34;100.00
9257;BME280;4665;51.368;6.782;2023-01-15T11:44:11;99807.41;;;6.32;100.00
9257;BME280;4665;51.368;6.782;2023-01-15T11:46:55;99812.03;;;6.30;100.00
9257;BME280;4665;51.368;6.782;2023-01-15T11:49:39;99813.16;;;6.28;100.00
9257;BME280;4665;51.368;6.782;2023-01-15T11:52:32;99814.16;;;6.27;100.00
9257;BME280;4665;51.368;6.782;2023-01-15T11:54:58;99822.53;;;6.22;100.00
9257;BME280;4665;51.368;6.782;2023-01-15T11:57:27;99810.59;;;6.18;100.00
9257;BME280;4665;51.368;6.782;2023-01-15T11:59:56;99811.78;;;6.24;100.00
9257;BME280;4665;51.368;6.782;2023-01-15T12:02:36;99813.16;;;6.28;100.00
9257;BME280;4665;51.368;6.782;2023-01-15T12:07:43;99813.03;;;6.29;100.00
9257;BME280;4665;51.368;6.782;2023-01-15T12:27:11;99810.97;;;6.23;100.00
9257;BME280;4665;51.368;6.782;2023-01-15T12:29:45;99821.53;;;6.23;100.00
9257;BME280;4665;51.368;6.782;2023-01-15T12:32:17;99809.31;;;6.22;100.00
9257;BME280;4665;51.368;6.782;2023-01-15T12:34:52;99786.47;;;6.21;100.00
9257;BME280;4665;51.368;6.782;2023-01-15T12:37:23;99792.53;;;6.31;100.00
9257;BME280;4665;51.368;6.782;2023-01-15T12:39:56;99771.38;;;6.31;100.00
9257;BME280;4665;51.368;6.782;2023-01-15T12:42:25;99789.94;;;6.40;100.00
9257;BME280;4665;51.368;6.782;2023-01-15T12:45:24;99782.03;;;6.40;100.00
9257;BME280;4665;51.368;6.782;2023-01-15T12:55:59;99800.22;;;6.43;100.00
9257;BME280;4665;51.368;6.782;2023-01-15T12:58:36;99787.41;;;6.48;100.00
9257;BME280;4665;51.368;6.782;2023-01-15T13:03:51;99789.50;;;6.44;100.00
9257;BME280;4665;51.368;6.782;2023-01-15T13:06:21;99785.03;;;6.45;100.00
9257;BME280;4665;51.368;6.782;2023-01-15T13:09:01;99794.56;;;6.38;100.00
9257;BME280;4665;51.368;6.782;2023-01-15T13:11:29;99809.47;;;6.39;100.00
9257;BME280;4665;51.368;6.782;2023-01-15T13:13:54;99804.69;;;6.42;100.00
9257;BME280;4665;51.368;6.782;2023-01-15T13:16:26;99820.88;;;6.39;100.00
9257;BME280;4665;51.368;6.782;2023-01-15T13:21:30;99810.38;;;6.29;100.00
9257;BME280;4665;51.368;6.782;2023-01-15T13:32:18;99798.19;;;6.37;100.00
9257;BME280;4665;51.368;6.782;2023-01-15T13:34:52;99800.16;;;6.35;100.00
9257;BME280;4665;51.368;6.782;2023-01-15T13:37:40;99804.47;;;6.36;100.00
9257;BME280;4665;51.368;6.782;2023-01-15T13:40:32;99807.28;;;6.34;100.00
9257;BME280;4665;51.368;6.782;2023-01-15T13:46:12;99813.41;;;6.35;100.00
9257;BME280;4665;51.368;6.782;2023-01-15T13:48:47;99815.44;;;6.41;100.00
9257;BME280;4665;51.368;6.782;2023-01-15T13:51:32;99814.31;;;6.43;100.00
9257;BME280;4665;51.368;6.782;2023-01-15T13:54:04;99811.44;;;6.37;100.00
9257;BME280;4665;51.368;6.782;2023-01-15T13:57:18;99810.88;;;6.33;100.00
9257;BME280;4665;51.368;6.782;2023-01-15T13:59:45;99825.63;;;6.36;100.00
9257;BME280;4665;51.368;6.782;2023-01-15T14:02:31;99824.50;;;6.38;100.00
9257;BME280;4665;51.368;6.782;2023-01-15T14:04:59;99807.72;;;6.47;100.00
9257;BME280;4665;51.368;6.782;2023-01-15T14:07:35;99819.66;;;6.51;100.00
9257;BME280;4665;51.368;6.782;2023-01-15T14:15:51;99833.50;;;6.45;100.00
9257;BME280;4665;51.368;6.782;2023-01-15T14:24:14;99843.56;;;6.42;100.00
9257;BME280;4665;51.368;6.782;2023-01-15T14:26:59;99849.16;;;6.39;100.00
9257;BME280;4665;51.368;6.782;2023-01-15T14:34:37;99830.00;;;6.45;100.00
9257;BME280;4665;51.368;6.782;2023-01-15T14:37:22;99850.66;;;6.41;100.00
9257;BME280;4665;51.368;6.782;2023-01-15T14:39:52;99842.50;;;6.52;100.00
9257;BME280;4665;51.368;6.782;2023-01-15T14:48:49;99859.53;;;6.50;100.00
9257;BME280;4665;51.368;6.782;2023-01-15T14:50:49;99842.97;;;6.48;100.00
9257;BME280;4665;51.368;6.782;2023-01-15T14:53:25;99849.91;;;6.49;100.00
9257;BME280;4665;51.368;6.782;2023-01-15T14:56:05;99857.06;;;6.57;100.00
9257;BME280;4665;51.368;6.782;2023-01-15T15:01:34;99858.97;;;6.46;100.00
9257;BME280;4665;51.368;6.782;2023-01-15T15:07:00;99865.88;;;6.57;100.00
9257;BME280;4665;51.368;6.782;2023-01-15T15:09:40;99861.16;;;6.51;100.00
9257;BME280;4665;51.368;6.782;2023-01-15T15:12:36;99863.13;;;6.49;100.00
9257;BME280;4665;51.368;6.782;2023-01-15T15:23:07;99872.50;;;6.43;100.00
9257;BME280;4665;51.368;6.782;2023-01-15T15:25:37;99869.00;;;6.43;100.00
9257;BME280;4665;51.368;6.782;2023-01-15T15:28:10;99872.78;;;6.40;100.00
9257;BME280;4665;51.368;6.782;2023-01-15T15:30:41;99873.09;;;6.37;100.00
9257;BME280;4665;51.368;6.782;2023-01-15T15:33:17;99863.66;;;6.35;100.00
9257;BME280;4665;51.368;6.782;2023-01-15T15:35:49;99865.72;;;6.41;100.00
9257;BME280;4665;51.368;6.782;2023-01-15T15:41:28;99877.19;;;6.31;100.00
9257;BME280;4665;51.368;6.782;2023-01-15T15:44:43;99864.84;;;6.22;100.00
9257;BME280;4665;51.368;6.782;2023-01-15T15:47:37;99878.84;;;6.32;100.00
9257;BME280;4665;51.368;6.782;2023-01-15T15:50:27;99885.81;;;6.34;100.00
9257;BME280;4665;51.368;6.782;2023-01-15T15:52:54;99889.13;;;6.36;100.00
9257;BME280;4665;51.368;6.782;2023-01-15T15:55:21;99879.53;;;6.35;100.00